Minerva Zen — SVBN3 — position and weather

sailwx.info

Track history (hours):
 
Tides and Currents Weather Stations Pressure Air Temp Water Temp Dewpoint Dewpoint Depression Visibility Wind Speed Wind Dir Waves Ship Positions

Minerva Zen

Last reported at 2014-Nov-21 17:16 UTC. Time now 2014-Nov-25 00:36 UTC.
Position N 36°09' E 015°15'.

Length 183 m; draft 10.5 m.

Type: Ship. MMSI: 241190000.

Date/timePositionNaut miles runAvg speedWind from/ knotsBaromVisibWave heightAir tempDewpointWater temp
2014-Nov-21 17:16N 36°09' E 015°15'912.5
2014-Nov-21 16:33N 36°02' E 015°08'1212.4
2014-Nov-21 15:33N 35°52' E 014°60'1212.2
2014-Nov-21 14:33N 35°42' E 014°51'1211.7
2014-Nov-21 13:31N 35°36' E 014°38'1212.0
2014-Nov-21 12:33N 35°31' E 014°25'1211.9
2014-Nov-21 11:33N 35°26' E 014°12'1212.1
2014-Nov-21 10:33N 35°21' E 013°58'1311.9
2014-Nov-21 09:28N 35°16' E 013°44'1411.6
2014-Nov-21 08:14N 35°10' E 013°28'911.7
2014-Nov-21 07:26N 35°06' E 013°18'15311.5
2014-Nov-20 18:08N 34°07' E 010°26'712.2
2014-Nov-20 17:33N 34°09' E 010°18'  
2014-Nov-17 23:15N 35°51' E 014°58'1113.8
2014-Nov-17 22:27N 36°00' E 015°06'  
Track history (hours):
 
Tides and Currents Weather Stations Pressure Air Temp Water Temp Dewpoint Dewpoint Depression Visibility Wind Speed Wind Dir Waves Ship Positions

Minerva Zen

Last reported at 2014-Nov-21 17:16 UTC. Time now 2014-Nov-25 00:36 UTC.
Position N 36°09' E 015°15'.

Length 183 m; draft 10.5 m.

Type: Ship. MMSI: 241190000.

Date/timePositionNaut miles runAvg speedWind from/ knotsBaromVisibWave heightAir tempDewpointWater temp
2014-Nov-21 17:16N 36°09' E 015°15'912.5
2014-Nov-21 16:33N 36°02' E 015°08'1212.4
2014-Nov-21 15:33N 35°52' E 014°60'1212.2
2014-Nov-21 14:33N 35°42' E 014°51'1211.7
2014-Nov-21 13:31N 35°36' E 014°38'1212.0
2014-Nov-21 12:33N 35°31' E 014°25'1211.9
2014-Nov-21 11:33N 35°26' E 014°12'1212.1
2014-Nov-21 10:33N 35°21' E 013°58'1311.9
2014-Nov-21 09:28N 35°16' E 013°44'1411.6
2014-Nov-21 08:14N 35°10' E 013°28'911.7
2014-Nov-21 07:26N 35°06' E 013°18'15311.5
2014-Nov-20 18:08N 34°07' E 010°26'712.2
2014-Nov-20 17:33N 34°09' E 010°18'  
2014-Nov-17 23:15N 35°51' E 014°58'1113.8
2014-Nov-17 22:27N 36°00' E 015°06'  

Dump ship's entire track history